createdAt,value
2023-02-03T00:01:32.065Z,8.40
2023-02-03T00:04:00.040Z,8.40
2023-02-03T00:06:28.373Z,8.40
2023-02-03T00:08:58.183Z,8.40
2023-02-03T00:11:28.083Z,8.40
2023-02-03T00:13:56.064Z,8.40
2023-02-03T00:16:24.466Z,8.40
2023-02-03T00:18:52.497Z,8.40
2023-02-03T00:21:20.477Z,8.30
2023-02-03T00:23:48.518Z,8.30
2023-02-03T00:26:18.447Z,8.30
2023-02-03T00:28:47.908Z,8.30
2023-02-03T00:31:17.537Z,8.30
2023-02-03T00:33:45.682Z,8.30
2023-02-03T00:36:14.345Z,8.30
2023-02-03T00:38:44.958Z,8.40
2023-02-03T00:41:13.084Z,8.40
2023-02-03T00:43:41.000Z,8.40
2023-02-03T00:46:10.452Z,8.30
2023-02-03T00:48:38.493Z,8.30
2023-02-03T00:51:07.173Z,8.30
2023-02-03T00:53:37.130Z,8.30
2023-02-03T00:56:12.419Z,8.40
2023-02-03T00:58:40.788Z,8.40
2023-02-03T01:01:10.288Z,8.40
2023-02-03T01:03:38.781Z,8.40
2023-02-03T01:06:11.519Z,8.40
2023-02-03T01:08:39.481Z,8.40
2023-02-03T01:11:09.042Z,8.50
2023-02-03T01:13:37.228Z,8.50
2023-02-03T01:16:10.640Z,8.40
2023-02-03T01:18:38.982Z,8.50
2023-02-03T01:21:11.420Z,8.40
2023-02-03T01:23:39.764Z,8.40
2023-02-03T01:26:09.863Z,8.40
2023-02-03T01:28:38.127Z,8.50
2023-02-03T01:31:15.760Z,8.40
2023-02-03T01:33:47.047Z,8.50
2023-02-03T01:36:16.059Z,8.50
2023-02-03T01:38:44.848Z,8.50
2023-02-03T01:41:15.895Z,8.50
2023-02-03T01:43:45.810Z,8.50
2023-02-03T01:46:25.816Z,8.50
2023-02-03T01:48:55.670Z,8.50
2023-02-03T01:51:24.231Z,8.50
2023-02-03T01:53:57.383Z,8.50
2023-02-03T01:56:28.765Z,8.50
2023-02-03T01:58:58.975Z,8.50
2023-02-03T02:01:30.365Z,8.50
2023-02-03T02:04:05.009Z,8.50
2023-02-03T02:06:32.992Z,8.50
2023-02-03T02:09:02.215Z,8.50
2023-02-03T02:11:30.605Z,8.50
2023-02-03T02:14:01.686Z,8.40
2023-02-03T02:16:41.625Z,8.40
2023-02-03T02:19:42.540Z,8.40
2023-02-03T02:22:15.041Z,8.40
2023-02-03T02:25:00.694Z,8.50
2023-02-03T02:28:17.238Z,8.50
2023-02-03T02:31:07.974Z,8.40
2023-02-03T02:33:43.785Z,8.40
2023-02-03T02:36:24.368Z,8.30
2023-02-03T02:38:59.107Z,8.40
2023-02-03T02:41:32.805Z,8.40
2023-02-03T02:44:05.350Z,8.40
2023-02-03T02:46:36.222Z,8.40
2023-02-03T02:49:09.957Z,8.30
2023-02-03T02:51:40.617Z,8.30
2023-02-03T02:54:11.913Z,8.30
2023-02-03T02:56:42.089Z,8.30
2023-02-03T02:59:13.342Z,8.30
2023-02-03T03:01:41.505Z,8.30
2023-02-03T03:04:13.014Z,8.30
2023-02-03T03:06:45.821Z,8.30
2023-02-03T03:09:18.063Z,8.40
2023-02-03T03:11:51.092Z,8.30
2023-02-03T03:14:22.093Z,8.40
2023-02-03T03:16:57.063Z,8.40
2023-02-03T03:19:29.544Z,8.40
2023-02-03T03:22:00.167Z,8.40
2023-02-03T03:24:33.226Z,8.40
2023-02-03T03:27:07.981Z,8.40
2023-02-03T03:29:41.484Z,8.50
2023-02-03T03:32:12.046Z,8.50
2023-02-03T03:34:42.369Z,8.50
2023-02-03T03:37:17.757Z,8.50
2023-02-03T03:39:52.368Z,8.50
2023-02-03T03:42:22.138Z,8.60
2023-02-03T03:44:54.814Z,8.60
2023-02-03T03:47:29.795Z,8.60
2023-02-03T03:50:01.723Z,8.60
2023-02-03T03:52:34.776Z,8.70
2023-02-03T03:55:07.395Z,8.70
2023-02-03T03:57:38.395Z,8.70
2023-02-03T04:00:11.106Z,8.70
2023-02-03T04:02:41.926Z,8.70
2023-02-03T04:05:12.851Z,8.70
2023-02-03T04:07:43.083Z,8.70
2023-02-03T04:10:19.043Z,8.70
2023-02-03T04:12:46.949Z,8.70
2023-02-03T04:15:17.856Z,8.70
2023-02-03T04:17:45.804Z,8.70
2023-02-03T04:20:16.260Z,8.60
2023-02-03T04:22:51.658Z,8.70
2023-02-03T04:25:19.638Z,8.70
2023-02-03T04:27:47.605Z,8.70
2023-02-03T04:30:18.434Z,8.70
2023-02-03T04:32:46.824Z,8.70
2023-02-03T04:35:16.339Z,8.70
2023-02-03T04:37:44.363Z,8.70
2023-02-03T04:40:13.318Z,8.80
2023-02-03T04:42:41.819Z,8.80
2023-02-03T04:45:12.981Z,8.80
2023-02-03T04:47:43.773Z,8.80
2023-02-03T04:50:11.844Z,8.90
2023-02-03T04:52:43.972Z,8.90
2023-02-03T04:55:11.988Z,8.90
2023-02-03T04:57:39.928Z,8.90
2023-02-03T05:00:09.190Z,8.90
2023-02-03T05:02:37.286Z,8.90
2023-02-03T05:05:05.702Z,8.90
2023-02-03T05:07:33.754Z,8.90
2023-02-03T05:10:03.256Z,8.80
2023-02-03T05:12:31.227Z,8.90
2023-02-03T05:14:59.240Z,8.80
2023-02-03T05:17:27.252Z,8.80
2023-02-03T05:19:55.272Z,8.90
2023-02-03T05:22:23.370Z,8.90
2023-02-03T05:24:51.240Z,8.90
2023-02-03T05:27:20.507Z,8.90
2023-02-03T05:29:48.515Z,8.90
2023-02-03T05:32:20.720Z,8.90
2023-02-03T05:34:49.594Z,8.90
2023-02-03T05:37:17.544Z,9.00
2023-02-03T05:39:45.495Z,9.00
2023-02-03T05:42:12.457Z,9.00
2023-02-03T05:44:41.963Z,9.00
2023-02-03T05:47:10.195Z,9.00
2023-02-03T05:49:38.175Z,9.00
2023-02-03T05:52:06.162Z,9.00
2023-02-03T05:54:34.191Z,8.90
2023-02-03T05:57:02.146Z,8.90
2023-02-03T05:59:30.069Z,8.90
2023-02-03T06:01:59.429Z,8.90
2023-02-03T06:04:27.569Z,8.80
2023-02-03T06:06:55.555Z,8.90
2023-02-03T06:09:23.450Z,8.90
2023-02-03T06:11:51.366Z,8.80
2023-02-03T06:14:19.433Z,8.90
2023-02-03T06:16:47.463Z,8.90
2023-02-03T06:19:16.924Z,8.90
2023-02-03T06:21:44.926Z,8.90
2023-02-03T06:24:12.994Z,8.90
2023-02-03T06:26:40.988Z,8.90
2023-02-03T06:29:09.053Z,8.90
2023-02-03T06:31:37.070Z,8.90
2023-02-03T06:34:05.144Z,8.90
2023-02-03T06:36:34.524Z,8.90
2023-02-03T06:39:02.484Z,8.90
2023-02-03T06:41:30.698Z,8.90
2023-02-03T06:43:58.861Z,8.90
2023-02-03T06:46:29.787Z,8.90
2023-02-03T06:48:58.130Z,8.90
2023-02-03T06:51:26.263Z,8.90
2023-02-03T06:53:55.640Z,8.90
2023-02-03T06:56:23.553Z,8.80
2023-02-03T06:58:51.697Z,8.70
2023-02-03T07:01:19.843Z,8.70
2023-02-03T07:03:48.321Z,8.60
2023-02-03T07:06:16.404Z,8.60
2023-02-03T07:08:44.489Z,8.60
2023-02-03T07:11:16.966Z,8.50
2023-02-03T07:13:45.993Z,8.50
2023-02-03T07:16:18.757Z,8.50
2023-02-03T07:18:48.200Z,8.40
2023-02-03T07:21:17.183Z,8.40
2023-02-03T07:23:47.493Z,8.40
2023-02-03T07:26:17.553Z,8.30
2023-02-03T07:28:45.646Z,8.30
2023-02-03T07:31:13.853Z,8.30
2023-02-03T07:33:41.951Z,8.30
2023-02-03T07:36:12.096Z,8.40
2023-02-03T07:38:40.109Z,8.40
2023-02-03T07:41:08.420Z,8.40
2023-02-03T07:43:38.032Z,8.50
2023-02-03T07:46:06.209Z,8.50
2023-02-03T07:48:34.363Z,8.60
2023-02-03T07:51:02.520Z,8.60
2023-02-03T07:53:30.540Z,8.60
2023-02-03T07:56:01.344Z,8.70
2023-02-03T07:58:29.801Z,8.70
2023-02-03T08:00:59.860Z,8.70
2023-02-03T08:03:27.995Z,8.80
2023-02-03T08:05:56.032Z,8.80
2023-02-03T08:08:23.969Z,8.90
2023-02-03T08:10:51.935Z,8.90
2023-02-03T08:13:19.944Z,8.90
2023-02-03T08:15:48.700Z,9.00
2023-02-03T08:18:18.118Z,9.00
2023-02-03T08:20:47.395Z,9.00
2023-02-03T08:23:15.367Z,9.00
2023-02-03T08:25:43.262Z,9.00
2023-02-03T08:28:11.348Z,9.10
2023-02-03T08:30:39.691Z,9.10
2023-02-03T08:33:07.616Z,9.20
2023-02-03T08:35:39.159Z,9.20
2023-02-03T08:38:07.430Z,9.20
2023-02-03T08:40:35.460Z,9.20
2023-02-03T08:43:03.527Z,9.20
2023-02-03T08:45:34.481Z,9.20
2023-02-03T08:48:02.541Z,9.20
2023-02-03T08:50:30.936Z,9.20
2023-02-03T08:53:00.531Z,9.20
2023-02-03T08:55:28.601Z,9.20
2023-02-03T08:57:56.731Z,9.30
2023-02-03T09:00:25.268Z,9.30
2023-02-03T09:02:55.345Z,9.30
2023-02-03T09:05:23.621Z,9.30
2023-02-03T09:07:51.569Z,9.30
2023-02-03T09:10:23.628Z,9.40
2023-02-03T09:12:51.670Z,9.40
2023-02-03T09:15:19.648Z,9.40
2023-02-03T09:17:47.711Z,9.40
2023-02-03T09:20:16.179Z,9.40
2023-02-03T09:22:44.295Z,9.50
2023-02-03T09:25:12.325Z,9.40
2023-02-03T09:27:41.683Z,9.50
2023-02-03T09:30:10.791Z,9.50
2023-02-03T09:32:38.730Z,9.60
2023-02-03T09:35:09.603Z,9.60
2023-02-03T09:37:37.952Z,9.60
2023-02-03T09:40:07.069Z,9.70
2023-02-03T09:43:03.305Z,9.70
2023-02-03T09:45:36.207Z,9.80
2023-02-03T09:48:07.317Z,9.90
2023-02-03T09:50:37.145Z,9.90
2023-02-03T09:53:27.709Z,10.00
2023-02-03T09:55:57.876Z,9.90
2023-02-03T09:58:28.180Z,9.90
2023-02-03T10:01:00.091Z,9.80
2023-02-03T10:03:34.554Z,9.80
2023-02-03T10:06:13.797Z,9.70
2023-02-03T10:09:02.069Z,9.70
2023-02-03T10:11:46.577Z,9.80
2023-02-03T10:14:29.065Z,9.80
2023-02-03T10:17:10.717Z,9.80
2023-02-03T10:19:44.569Z,9.90
2023-02-03T10:22:17.666Z,10.00
2023-02-03T10:24:49.392Z,10.00
2023-02-03T10:27:19.655Z,10.10
2023-02-03T10:29:52.057Z,10.10
2023-02-03T10:32:21.447Z,10.10
2023-02-03T10:34:49.492Z,10.20
2023-02-03T10:37:26.780Z,10.10
2023-02-03T10:39:57.590Z,10.20
2023-02-03T10:42:48.236Z,10.20
2023-02-03T10:45:16.720Z,10.30
2023-02-03T10:47:49.591Z,10.40
2023-02-03T10:50:19.975Z,10.40
2023-02-03T10:52:48.310Z,10.40
2023-02-03T10:55:31.966Z,10.40
2023-02-03T10:58:15.360Z,10.40
2023-02-03T11:00:43.770Z,10.40
2023-02-03T11:03:24.232Z,10.30
2023-02-03T11:06:09.357Z,10.30
2023-02-03T11:08:39.148Z,10.40
2023-02-03T11:11:08.842Z,10.30
2023-02-03T11:13:37.276Z,10.20
2023-02-03T11:16:07.539Z,10.20
2023-02-03T11:18:45.144Z,10.20
2023-02-03T11:21:17.262Z,10.20
2023-02-03T11:24:07.203Z,10.20
2023-02-03T11:26:41.538Z,10.20
2023-02-03T11:29:19.977Z,10.20
2023-02-03T11:31:51.257Z,10.20
2023-02-03T11:34:26.104Z,10.20
2023-02-03T11:36:55.450Z,10.10
2023-02-03T11:39:35.763Z,10.10
2023-02-03T11:42:04.274Z,10.10
2023-02-03T11:44:34.871Z,10.10
2023-02-03T11:47:05.454Z,10.00
2023-02-03T11:50:08.703Z,10.10
2023-02-03T11:52:56.198Z,10.00
2023-02-03T11:55:34.885Z,10.00
2023-02-03T11:58:19.684Z,10.00
2023-02-03T12:00:56.423Z,10.00
2023-02-03T12:03:58.385Z,9.90
2023-02-03T12:06:43.530Z,9.90
2023-02-03T12:09:24.993Z,9.90
2023-02-03T12:12:10.897Z,9.90
2023-02-03T12:14:55.028Z,10.00
2023-02-03T12:17:48.135Z,10.00
2023-02-03T12:20:44.969Z,10.10
2023-02-03T12:23:26.205Z,10.10
2023-02-03T12:26:04.946Z,10.10
2023-02-03T12:28:48.988Z,10.10
2023-02-03T12:31:30.516Z,10.10
2023-02-03T12:34:07.274Z,10.30
2023-02-03T12:36:43.971Z,10.30
2023-02-03T12:39:22.610Z,10.30
2023-02-03T12:41:58.442Z,10.40
2023-02-03T12:44:33.371Z,10.40
2023-02-03T12:47:06.794Z,10.50
2023-02-03T12:49:42.629Z,10.40
2023-02-03T12:52:23.688Z,10.30
2023-02-03T12:55:00.545Z,10.30
2023-02-03T12:57:39.433Z,10.20
2023-02-03T13:00:30.400Z,10.20
2023-02-03T13:03:13.158Z,10.20
2023-02-03T13:05:45.789Z,10.30
2023-02-03T13:08:18.923Z,10.30
2023-02-03T13:10:51.427Z,10.20
2023-02-03T13:13:28.826Z,10.30
2023-02-03T13:15:58.462Z,10.30
2023-02-03T13:18:29.852Z,10.20
2023-02-03T13:20:58.099Z,10.30
2023-02-03T13:23:27.113Z,10.40
2023-02-03T13:26:25.316Z,10.30
2023-02-03T13:29:11.836Z,10.30
2023-02-03T13:31:57.270Z,10.30
2023-02-03T13:34:42.446Z,10.30
2023-02-03T13:37:42.564Z,10.20
2023-02-03T13:40:23.779Z,10.10
2023-02-03T13:43:03.290Z,10.10
2023-02-03T13:45:34.606Z,10.10
2023-02-03T13:48:11.451Z,10.10
2023-02-03T13:50:40.503Z,10.10
2023-02-03T13:53:17.862Z,10.10
2023-02-03T13:55:54.401Z,10.00
2023-02-03T13:58:26.407Z,10.00
2023-02-03T14:01:04.188Z,10.00
2023-02-03T14:03:46.365Z,10.10
2023-02-03T14:07:06.540Z,10.10
2023-02-03T14:09:41.571Z,10.10
2023-02-03T14:12:33.565Z,10.10
2023-02-03T14:15:18.834Z,10.10
2023-02-03T14:18:25.648Z,10.00
2023-02-03T14:21:20.467Z,10.00
2023-02-03T14:24:03.636Z,9.90
2023-02-03T14:26:43.255Z,9.90
2023-02-03T14:29:27.222Z,9.90
2023-02-03T14:32:01.358Z,10.00
2023-02-03T14:34:40.801Z,10.00
2023-02-03T14:37:21.626Z,10.00
2023-02-03T14:40:32.135Z,10.00
2023-02-03T14:43:35.637Z,10.00
2023-02-03T14:46:29.607Z,10.00
2023-02-03T14:49:13.217Z,10.00
2023-02-03T14:52:02.823Z,10.00
2023-02-03T14:54:49.030Z,10.00
2023-02-03T14:57:31.227Z,9.90
2023-02-03T15:00:03.447Z,9.90
2023-02-03T15:02:36.499Z,9.90
2023-02-03T15:05:38.725Z,10.00
2023-02-03T15:08:22.484Z,10.00
2023-02-03T15:10:50.737Z,10.00
2023-02-03T15:13:26.846Z,10.00
2023-02-03T15:15:57.905Z,10.10
2023-02-03T15:18:31.601Z,10.00
2023-02-03T15:21:04.197Z,10.00
2023-02-03T15:23:42.382Z,10.00
2023-02-03T15:26:19.659Z,10.00
2023-02-03T15:28:58.573Z,9.90
2023-02-03T15:31:33.999Z,9.90
2023-02-03T15:34:11.076Z,9.90
2023-02-03T15:36:45.358Z,9.80
2023-02-03T15:39:22.921Z,9.80
2023-02-03T15:41:55.766Z,9.70
2023-02-03T15:44:31.864Z,9.80
2023-02-03T15:47:03.206Z,9.80
2023-02-03T15:49:35.811Z,9.80
2023-02-03T15:52:12.508Z,9.80
2023-02-03T15:54:46.015Z,9.70
2023-02-03T15:57:22.030Z,9.70
2023-02-03T15:59:55.031Z,9.70
2023-02-03T16:02:32.090Z,9.70
2023-02-03T16:05:07.036Z,9.70
2023-02-03T16:07:36.740Z,9.60
2023-02-03T16:10:08.172Z,9.70
2023-02-03T16:12:37.196Z,9.60
2023-02-03T16:15:05.870Z,9.70
2023-02-03T16:17:37.125Z,9.70
2023-02-03T16:20:28.427Z,9.60
2023-02-03T16:23:19.510Z,9.70
2023-02-03T16:26:03.716Z,9.70
2023-02-03T16:28:49.563Z,9.70
2023-02-03T16:31:37.310Z,9.70
2023-02-03T16:34:33.569Z,9.70
2023-02-03T16:37:19.483Z,9.70
2023-02-03T16:40:06.600Z,9.70
2023-02-03T16:42:57.613Z,9.70
2023-02-03T16:45:43.756Z,9.70
2023-02-03T16:48:30.700Z,9.70
2023-02-03T16:51:05.867Z,9.80
2023-02-03T16:53:34.984Z,9.80
2023-02-03T16:56:06.637Z,9.70
2023-02-03T16:58:34.832Z,9.80
2023-02-03T17:01:10.047Z,9.80
2023-02-03T17:03:38.612Z,9.80
2023-02-03T17:06:09.316Z,9.70
2023-02-03T17:08:38.218Z,9.70
2023-02-03T17:11:10.056Z,9.70
2023-02-03T17:13:38.480Z,9.60
2023-02-03T17:16:12.325Z,9.60
2023-02-03T17:18:41.111Z,9.60
2023-02-03T17:21:11.116Z,9.50
2023-02-03T17:23:39.861Z,9.40
2023-02-03T17:26:09.777Z,9.40
2023-02-03T17:28:37.937Z,9.30
2023-02-03T17:31:08.359Z,9.30
2023-02-03T17:33:39.329Z,9.20
2023-02-03T17:36:10.983Z,9.20
2023-02-03T17:55:22.982Z,9.00
2023-02-03T17:57:52.312Z,9.00
2023-02-03T18:00:20.885Z,9.00
2023-02-03T18:02:50.615Z,9.00
2023-02-03T18:05:19.486Z,9.00
2023-02-03T18:10:16.730Z,9.00
2023-02-03T18:12:44.764Z,9.00
2023-02-03T18:15:14.157Z,9.00
2023-02-03T18:17:44.543Z,9.00
2023-02-03T18:20:13.677Z,9.10
2023-02-03T18:22:41.653Z,9.10
2023-02-03T18:25:09.895Z,9.10
2023-02-03T18:27:37.898Z,9.10
2023-02-03T18:30:07.007Z,9.10
2023-02-03T18:32:36.401Z,9.10
2023-02-03T18:35:06.745Z,9.10
2023-02-03T18:37:36.585Z,9.10
2023-02-03T18:40:04.863Z,9.10
2023-02-03T18:42:32.924Z,9.10
2023-02-03T18:45:05.477Z,9.20
2023-02-03T18:47:33.346Z,9.20
2023-02-03T18:50:02.898Z,9.20
2023-02-03T18:52:31.120Z,9.20
2023-02-03T18:55:02.127Z,9.20
2023-02-03T18:57:30.293Z,9.20
2023-02-03T18:59:58.290Z,9.20
2023-02-03T19:02:28.087Z,9.30
2023-02-03T19:04:56.158Z,9.30
2023-02-03T19:07:25.614Z,9.30
2023-02-03T19:09:56.295Z,9.30
2023-02-03T19:12:26.277Z,9.40
2023-02-03T19:14:54.355Z,9.30
2023-02-03T19:17:23.536Z,9.40
2023-02-03T19:19:51.743Z,9.40
2023-02-03T19:22:19.921Z,9.50
2023-02-03T19:24:49.803Z,9.50
2023-02-03T19:27:18.312Z,9.50
2023-02-03T19:29:46.737Z,9.60
2023-02-03T19:32:15.335Z,9.60
2023-02-03T19:34:47.147Z,9.60
2023-02-03T19:37:17.547Z,9.60
2023-02-03T19:39:50.359Z,9.60
2023-02-03T19:42:21.663Z,9.70
2023-02-03T19:44:51.108Z,9.80
2023-02-03T19:47:19.595Z,9.80
2023-02-03T19:49:49.707Z,9.80
2023-02-03T19:52:20.049Z,9.80
2023-02-03T19:54:48.476Z,9.80
2023-02-03T19:57:17.348Z,9.80
2023-02-03T19:59:47.272Z,9.80
2023-02-03T20:02:18.459Z,9.90
2023-02-03T20:04:47.066Z,9.90
2023-02-03T20:07:15.871Z,9.90
2023-02-03T20:09:44.999Z,9.90
2023-02-03T20:12:18.750Z,9.90
2023-02-03T20:14:56.925Z,9.90
2023-02-03T20:17:28.038Z,9.90
2023-02-03T20:19:58.178Z,9.90
2023-02-03T20:22:29.029Z,9.90
2023-02-03T20:24:58.685Z,9.90
2023-02-03T20:27:27.026Z,9.80
2023-02-03T20:29:56.817Z,9.90
2023-02-03T20:32:33.292Z,9.90
2023-02-03T20:35:07.153Z,10.00
2023-02-03T20:37:36.149Z,9.90
2023-02-03T20:40:13.456Z,9.90
2023-02-03T20:42:41.749Z,9.90
2023-02-03T20:45:15.761Z,9.90
2023-02-03T20:47:44.796Z,9.90
2023-02-03T20:50:18.365Z,9.90
2023-02-03T20:52:50.141Z,9.90
2023-02-03T20:55:20.975Z,9.90
2023-02-03T20:57:56.173Z,9.90
2023-02-03T21:00:27.941Z,9.80
2023-02-03T21:03:19.327Z,9.90
2023-02-03T21:05:47.935Z,9.90
2023-02-03T21:08:20.761Z,9.80
2023-02-03T21:10:50.179Z,9.80
2023-02-03T21:13:21.750Z,9.90
2023-02-03T21:15:52.375Z,9.90
2023-02-03T21:18:37.931Z,9.90
2023-02-03T21:21:16.315Z,9.80
2023-02-03T21:23:48.325Z,9.80
2023-02-03T21:26:22.187Z,9.80
2023-02-03T21:28:52.328Z,9.80
2023-02-03T21:31:28.105Z,9.70
2023-02-03T21:33:57.514Z,9.70
2023-02-03T21:36:27.548Z,9.70
2023-02-03T21:38:57.295Z,9.70
2023-02-03T21:41:26.566Z,9.70
2023-02-03T21:43:57.205Z,9.70
2023-02-03T21:46:29.567Z,9.70
2023-02-03T21:48:58.464Z,9.70
2023-02-03T21:51:28.177Z,9.70
2023-02-03T21:53:57.957Z,9.70
2023-02-03T21:56:28.149Z,9.70
2023-02-03T21:58:58.925Z,9.70
2023-02-03T22:01:33.331Z,9.70
2023-02-03T22:04:02.340Z,9.80
2023-02-03T22:06:37.239Z,9.70
2023-02-03T22:09:05.248Z,9.80
2023-02-03T22:11:33.811Z,9.80
2023-02-03T22:14:04.084Z,9.80
2023-02-03T22:16:33.791Z,9.80
2023-02-03T22:19:01.812Z,9.80
2023-02-03T22:21:29.973Z,9.90
2023-02-03T22:24:01.033Z,9.80
2023-02-03T22:26:29.397Z,9.80
2023-02-03T22:28:57.816Z,9.80
2023-02-03T22:31:25.872Z,9.80
2023-02-03T22:33:55.554Z,9.80
2023-02-03T22:36:25.214Z,9.80
2023-02-03T22:38:53.200Z,9.80
2023-02-03T22:41:21.862Z,9.80
2023-02-03T22:43:49.885Z,9.80
2023-02-03T22:46:22.380Z,9.90
2023-02-03T22:48:50.131Z,9.90
2023-02-03T22:51:19.490Z,9.90
2023-02-03T22:53:48.461Z,9.80
2023-02-03T22:56:16.446Z,9.80
2023-02-03T22:58:44.432Z,9.80
2023-02-03T23:01:12.413Z,9.80
2023-02-03T23:03:43.080Z,9.70
2023-02-03T23:06:13.727Z,9.70
2023-02-03T23:08:43.015Z,9.80
2023-02-03T23:11:10.915Z,9.70
2023-02-03T23:13:38.791Z,9.70
2023-02-03T23:16:07.318Z,9.70
2023-02-03T23:18:35.733Z,9.70
2023-02-03T23:21:03.612Z,9.70
2023-02-03T23:23:31.535Z,9.70
2023-02-03T23:26:14.288Z,9.70
2023-02-03T23:28:42.121Z,9.70
2023-02-03T23:31:10.168Z,9.60
2023-02-03T23:33:38.213Z,9.60
2023-02-03T23:36:07.430Z,9.60
2023-02-03T23:38:36.979Z,9.60
2023-02-03T23:41:06.423Z,9.60
2023-02-03T23:43:34.322Z,9.60
2023-02-03T23:46:03.500Z,9.60
2023-02-03T23:48:31.462Z,9.60
2023-02-03T23:51:01.881Z,9.70
2023-02-03T23:53:29.815Z,9.60
2023-02-03T23:55:57.840Z,9.60
2023-02-03T23:58:27.254Z,9.60
